createdAt,value
2018-03-06T00:01:47.441Z,88.31
2018-03-06T00:04:14.914Z,88.53
2018-03-06T00:06:42.425Z,88.82
2018-03-06T00:09:09.917Z,88.86
2018-03-06T00:11:37.411Z,88.82
2018-03-06T00:14:04.954Z,88.62
2018-03-06T00:16:32.468Z,88.66
2018-03-06T00:18:59.943Z,88.49
2018-03-06T00:21:27.482Z,88.51
2018-03-06T00:23:54.974Z,88.63
2018-03-06T00:26:22.471Z,88.80
2018-03-06T00:28:49.947Z,88.94
2018-03-06T00:31:17.498Z,89.14
2018-03-06T00:33:45.015Z,89.35
2018-03-06T00:36:12.512Z,89.39
2018-03-06T00:38:40.117Z,89.26
2018-03-06T00:41:07.607Z,89.33
2018-03-06T00:43:35.093Z,89.29
2018-03-06T00:46:02.595Z,89.17
2018-03-06T00:48:30.115Z,89.16
2018-03-06T00:50:57.604Z,89.27
2018-03-06T00:53:25.085Z,89.15
2018-03-06T00:55:52.585Z,88.82
2018-03-06T00:58:20.071Z,88.78
2018-03-06T01:00:47.563Z,88.81
2018-03-06T01:03:15.035Z,88.89
2018-03-06T01:05:42.555Z,88.94
2018-03-06T01:08:10.031Z,89.06
2018-03-06T01:10:37.522Z,89.11
2018-03-06T01:13:04.987Z,89.18
2018-03-06T01:15:32.483Z,89.21
2018-03-06T01:17:59.956Z,89.29
2018-03-06T01:20:27.452Z,89.36
2018-03-06T01:22:54.929Z,89.22
2018-03-06T01:25:22.408Z,88.81
2018-03-06T01:27:49.906Z,88.62
2018-03-06T01:30:17.383Z,88.67
2018-03-06T01:32:44.879Z,88.73
2018-03-06T01:35:12.370Z,89.06
2018-03-06T01:37:39.868Z,89.29
2018-03-06T01:40:07.348Z,89.53
2018-03-06T01:42:34.835Z,89.68
2018-03-06T01:45:02.320Z,89.76
2018-03-06T01:47:29.820Z,89.82
2018-03-06T01:49:57.295Z,88.60
2018-03-06T01:52:24.790Z,88.60
2018-03-06T01:54:52.270Z,88.59
2018-03-06T01:57:19.766Z,88.78
2018-03-06T01:59:47.261Z,88.78
2018-03-06T02:02:14.771Z,87.74
2018-03-06T02:04:42.253Z,87.70
2018-03-06T02:07:09.757Z,87.62
2018-03-06T02:09:37.240Z,87.53
2018-03-06T02:12:04.748Z,87.45
2018-03-06T02:14:32.267Z,87.32
2018-03-06T02:16:59.737Z,87.00
2018-03-06T02:19:27.211Z,86.46
2018-03-06T02:21:54.707Z,86.12
2018-03-06T02:24:22.179Z,85.66
2018-03-06T02:26:49.679Z,85.39
2018-03-06T02:29:17.173Z,85.09
2018-03-06T02:31:44.671Z,84.91
2018-03-06T02:34:12.163Z,85.12
2018-03-06T02:36:39.655Z,85.06
2018-03-06T02:39:07.127Z,85.04
2018-03-06T02:41:34.630Z,85.33
2018-03-06T02:44:02.110Z,85.39
2018-03-06T02:46:29.607Z,85.32
2018-03-06T02:48:57.103Z,85.28
2018-03-06T02:51:24.611Z,85.31
2018-03-06T02:53:52.085Z,85.17
2018-03-06T02:56:19.565Z,85.21
2018-03-06T02:58:47.064Z,85.20
2018-03-06T03:01:14.535Z,85.60
2018-03-06T03:03:42.097Z,85.67
2018-03-06T03:06:09.573Z,85.98
2018-03-06T03:08:37.069Z,85.99
2018-03-06T03:11:04.542Z,86.06
2018-03-06T03:13:32.047Z,86.09
2018-03-06T03:15:59.527Z,86.11
2018-03-06T03:18:27.025Z,86.27
2018-03-06T03:20:54.501Z,86.33
2018-03-06T03:23:21.995Z,86.47
2018-03-06T03:25:49.485Z,86.53
2018-03-06T03:28:16.983Z,86.64
2018-03-06T03:30:44.462Z,86.57
2018-03-06T03:33:11.988Z,86.31
2018-03-06T03:35:39.463Z,86.20
2018-03-06T03:38:06.963Z,86.04
2018-03-06T03:40:34.440Z,85.86
2018-03-06T03:43:01.941Z,85.89
2018-03-06T03:45:29.421Z,85.83
2018-03-06T03:47:56.919Z,85.82
2018-03-06T03:50:24.418Z,85.82
2018-03-06T03:52:51.930Z,85.90
2018-03-06T03:55:19.410Z,85.75
2018-03-06T03:57:46.907Z,85.62
2018-03-06T04:00:14.403Z,85.55
2018-03-06T04:02:41.904Z,85.42
2018-03-06T04:05:09.380Z,85.18
2018-03-06T04:07:36.878Z,85.06
2018-03-06T04:10:04.359Z,85.17
2018-03-06T04:12:31.867Z,85.25
2018-03-06T04:14:59.375Z,85.24
2018-03-06T04:17:26.888Z,85.19
2018-03-06T04:19:54.419Z,85.30
2018-03-06T04:22:21.899Z,85.42
2018-03-06T04:24:49.392Z,85.61
2018-03-06T04:27:16.877Z,85.90
2018-03-06T04:29:44.377Z,85.97
2018-03-06T04:32:11.910Z,85.94
2018-03-06T04:34:39.469Z,85.95
2018-03-06T04:37:06.958Z,85.89
2018-03-06T04:39:34.446Z,86.00
2018-03-06T04:42:01.940Z,86.03
2018-03-06T04:44:29.439Z,85.93
2018-03-06T04:46:56.916Z,85.90
2018-03-06T04:49:24.414Z,86.02
2018-03-06T04:51:51.891Z,86.25
2018-03-06T04:54:19.390Z,86.29
2018-03-06T04:56:46.901Z,86.30
2018-03-06T04:59:14.400Z,86.29
2018-03-06T05:01:41.883Z,86.18
2018-03-06T05:04:09.388Z,86.08
2018-03-06T05:06:36.875Z,85.89
2018-03-06T05:09:04.398Z,85.86
2018-03-06T05:11:31.972Z,85.71
2018-03-06T05:13:59.475Z,85.62
2018-03-06T05:16:26.956Z,85.49
2018-03-06T05:18:54.461Z,85.58
2018-03-06T05:21:22.446Z,85.66
2018-03-06T05:23:49.963Z,85.77
2018-03-06T05:26:17.442Z,85.88
2018-03-06T05:28:44.942Z,85.95
2018-03-06T05:31:12.418Z,86.00
2018-03-06T05:33:39.912Z,86.02
2018-03-06T05:36:07.877Z,86.00
2018-03-06T05:38:35.388Z,86.02
2018-03-06T05:41:02.858Z,86.25
2018-03-06T05:43:30.362Z,86.30
2018-03-06T05:45:57.872Z,86.26
2018-03-06T05:48:25.352Z,85.97
2018-03-06T05:50:52.866Z,85.83
2018-03-06T05:53:20.347Z,85.61
2018-03-06T05:55:47.864Z,85.34
2018-03-06T05:58:15.339Z,85.35
2018-03-06T06:00:42.839Z,85.64
2018-03-06T06:03:10.318Z,85.89
2018-03-06T06:05:37.819Z,86.04
2018-03-06T06:08:06.873Z,86.11
2018-03-06T06:10:34.367Z,86.12
2018-03-06T06:13:01.843Z,86.24
2018-03-06T06:15:29.340Z,86.18
2018-03-06T06:17:56.839Z,85.96
2018-03-06T06:20:24.327Z,85.80
2018-03-06T06:22:51.792Z,85.45
2018-03-06T06:25:19.289Z,85.26
2018-03-06T06:27:46.764Z,85.01
2018-03-06T06:30:14.239Z,84.76
2018-03-06T06:32:41.744Z,84.66
2018-03-06T06:35:09.223Z,84.35
2018-03-06T06:37:36.740Z,84.18
2018-03-06T06:40:04.228Z,84.10
2018-03-06T06:42:31.723Z,84.49
2018-03-06T06:44:59.195Z,84.67
2018-03-06T06:47:26.765Z,84.68
2018-03-06T06:49:54.243Z,84.49
2018-03-06T06:52:21.756Z,84.17
2018-03-06T06:54:49.206Z,83.68
2018-03-06T06:57:17.279Z,83.31
2018-03-06T06:59:44.754Z,83.07
2018-03-06T07:02:12.211Z,83.04
2018-03-06T07:04:39.682Z,83.01
2018-03-06T07:07:07.172Z,82.80
2018-03-06T07:09:34.633Z,82.58
2018-03-06T07:12:02.130Z,82.33
2018-03-06T07:14:29.591Z,82.56
2018-03-06T07:16:57.084Z,82.47
2018-03-06T07:19:24.557Z,82.04
2018-03-06T07:21:52.035Z,81.07
2018-03-06T07:24:19.585Z,80.64
2018-03-06T07:26:47.079Z,82.13
2018-03-06T07:29:14.535Z,81.37
2018-03-06T07:31:42.016Z,80.58
2018-03-06T07:34:09.474Z,80.04
2018-03-06T07:36:36.972Z,79.43
2018-03-06T07:39:04.463Z,79.16
2018-03-06T07:41:31.964Z,78.82
2018-03-06T07:43:59.436Z,78.62
2018-03-06T07:46:26.918Z,77.92
2018-03-06T07:48:54.395Z,77.33
2018-03-06T07:51:21.898Z,77.16
2018-03-06T07:53:49.356Z,77.04
2018-03-06T07:56:16.836Z,76.52
2018-03-06T07:58:44.307Z,76.00
2018-03-06T08:01:11.795Z,75.34
2018-03-06T08:03:40.287Z,74.86
2018-03-06T08:06:08.483Z,74.25
2018-03-06T08:08:35.948Z,74.17
2018-03-06T08:11:03.449Z,75.44
2018-03-06T08:13:30.905Z,74.35
2018-03-06T08:15:58.412Z,74.29
2018-03-06T08:18:25.875Z,75.25
2018-03-06T08:20:53.363Z,74.49
2018-03-06T08:23:20.824Z,75.13
2018-03-06T08:25:48.315Z,75.11
2018-03-06T08:28:15.779Z,74.42
2018-03-06T08:30:43.271Z,73.41
2018-03-06T08:33:10.754Z,72.40
2018-03-06T08:35:38.215Z,71.93
2018-03-06T08:38:05.706Z,71.48
2018-03-06T08:40:33.173Z,71.33
2018-03-06T08:43:00.654Z,70.69
2018-03-06T08:45:28.118Z,71.45
2018-03-06T08:47:55.622Z,71.58
2018-03-06T08:50:23.088Z,71.24
2018-03-06T08:52:50.571Z,70.48
2018-03-06T08:55:18.040Z,70.87
2018-03-06T08:57:45.535Z,71.25
2018-03-06T09:00:12.995Z,71.93
2018-03-06T09:02:40.537Z,71.78
2018-03-06T09:05:08.019Z,71.22
2018-03-06T09:07:35.498Z,70.08
2018-03-06T09:10:02.959Z,69.42
2018-03-06T09:12:30.444Z,69.51
2018-03-06T09:14:57.898Z,69.26
2018-03-06T09:17:25.398Z,69.01
2018-03-06T09:19:52.864Z,67.67
2018-03-06T09:22:20.339Z,67.37
2018-03-06T09:24:47.857Z,66.85
2018-03-06T09:27:15.359Z,66.62
2018-03-06T09:29:43.945Z,66.18
2018-03-06T09:32:11.396Z,66.73
2018-03-06T09:34:39.804Z,67.09
2018-03-06T09:37:07.297Z,67.05
2018-03-06T09:39:34.813Z,68.21
2018-03-06T09:42:02.301Z,68.04
2018-03-06T09:44:29.784Z,67.98
2018-03-06T09:46:57.277Z,67.67
2018-03-06T09:49:24.740Z,67.48
2018-03-06T09:51:52.251Z,66.71
2018-03-06T09:54:19.711Z,66.13
2018-03-06T09:56:47.185Z,66.43
2018-03-06T09:59:14.711Z,65.87
2018-03-06T10:01:42.188Z,65.25
2018-03-06T10:04:09.682Z,64.45
2018-03-06T10:06:37.166Z,63.57
2018-03-06T10:09:05.252Z,63.73
2018-03-06T10:11:32.729Z,63.98
2018-03-06T10:14:00.944Z,64.02
2018-03-06T10:16:28.480Z,63.50
2018-03-06T10:18:56.196Z,62.95
2018-03-06T10:21:23.673Z,63.56
2018-03-06T10:23:51.183Z,64.02
2018-03-06T10:26:18.662Z,63.70
2018-03-06T10:28:46.176Z,64.17
2018-03-06T10:31:13.707Z,64.95
2018-03-06T10:33:41.187Z,63.89
2018-03-06T10:36:08.657Z,64.22
2018-03-06T10:38:36.144Z,63.43
2018-03-06T10:41:03.640Z,62.62
2018-03-06T10:43:31.133Z,61.88
2018-03-06T10:45:58.615Z,61.45
2018-03-06T10:48:26.113Z,61.08
2018-03-06T10:50:53.821Z,61.22
2018-03-06T10:53:21.320Z,61.71
2018-03-06T10:55:48.808Z,60.78
2018-03-06T10:58:16.313Z,60.50
2018-03-06T11:00:48.181Z,60.51
2018-03-06T11:03:21.266Z,61.35
2018-03-06T11:05:48.747Z,61.54
2018-03-06T11:08:16.308Z,60.88
2018-03-06T11:10:44.667Z,60.55
2018-03-06T11:13:12.155Z,59.06
2018-03-06T11:15:39.634Z,58.86
2018-03-06T11:18:07.130Z,58.21
2018-03-06T11:20:34.599Z,58.68
2018-03-06T11:23:02.966Z,58.26
2018-03-06T11:25:30.434Z,57.25
2018-03-06T11:27:57.956Z,57.14
2018-03-06T11:30:25.424Z,56.51
2018-03-06T11:32:52.902Z,56.07
2018-03-06T11:35:20.394Z,56.57
2018-03-06T11:37:47.858Z,57.45
2018-03-06T11:40:15.344Z,57.47
2018-03-06T11:42:42.819Z,56.69
2018-03-06T11:45:10.299Z,55.71
2018-03-06T11:47:37.771Z,55.05
2018-03-06T11:50:05.269Z,55.05
2018-03-06T11:52:32.780Z,54.97
2018-03-06T11:55:00.266Z,53.80
2018-03-06T11:57:27.736Z,51.87
2018-03-06T11:59:55.223Z,52.32
2018-03-06T12:02:22.693Z,51.37
2018-03-06T12:04:50.180Z,50.47
2018-03-06T12:07:17.647Z,50.24
2018-03-06T12:09:45.131Z,51.23
2018-03-06T12:12:12.601Z,51.24
2018-03-06T12:14:40.088Z,51.20
2018-03-06T12:17:07.787Z,50.97
2018-03-06T12:19:35.272Z,50.21
2018-03-06T12:22:03.207Z,50.23
2018-03-06T12:24:30.702Z,51.10
2018-03-06T12:26:58.176Z,50.12
2018-03-06T12:29:25.680Z,50.96
2018-03-06T12:31:53.151Z,53.39
2018-03-06T12:34:20.647Z,52.70
2018-03-06T12:36:48.155Z,52.95
2018-03-06T12:39:15.632Z,54.03
2018-03-06T12:41:43.106Z,53.12
2018-03-06T12:44:10.596Z,54.25
2018-03-06T12:46:38.083Z,54.92
2018-03-06T12:49:05.583Z,55.35
2018-03-06T12:51:33.047Z,54.30
2018-03-06T12:54:00.535Z,53.35
2018-03-06T12:56:28.008Z,52.50
2018-03-06T12:58:55.551Z,54.62
2018-03-06T13:01:23.037Z,53.73
2018-03-06T13:03:50.512Z,52.10
2018-03-06T13:06:17.998Z,51.07
2018-03-06T13:08:45.463Z,53.88
2018-03-06T13:11:12.943Z,54.09
2018-03-06T13:13:40.424Z,53.22
2018-03-06T13:16:07.912Z,53.85
2018-03-06T13:18:35.380Z,52.96
2018-03-06T13:21:02.863Z,50.65
2018-03-06T13:23:30.351Z,51.50
2018-03-06T13:25:57.844Z,52.09
2018-03-06T13:28:25.309Z,52.12
2018-03-06T13:30:52.802Z,53.37
2018-03-06T13:33:20.289Z,52.37
2018-03-06T13:35:47.780Z,54.85
2018-03-06T13:38:15.243Z,54.51
2018-03-06T13:40:42.726Z,56.12
2018-03-06T13:43:10.186Z,55.25
2018-03-06T13:45:37.689Z,55.93
2018-03-06T13:48:05.155Z,55.07
2018-03-06T13:50:32.641Z,54.79
2018-03-06T13:53:00.109Z,53.78
2018-03-06T13:55:27.606Z,52.40
2018-03-06T13:57:55.072Z,51.12
2018-03-06T14:00:22.561Z,49.17
2018-03-06T14:02:50.024Z,50.78
2018-03-06T14:05:17.515Z,51.31
2018-03-06T14:07:44.982Z,51.95
2018-03-06T14:10:12.467Z,51.72
2018-03-06T14:12:39.936Z,52.01
2018-03-06T14:15:07.435Z,50.97
2018-03-06T14:17:34.899Z,50.21
2018-03-06T14:20:02.379Z,49.69
2018-03-06T14:22:29.870Z,52.34
2018-03-06T14:24:57.348Z,51.08
2018-03-06T14:27:24.849Z,51.54
2018-03-06T14:29:52.317Z,49.68
2018-03-06T14:32:19.823Z,47.83
2018-03-06T14:34:47.292Z,45.91
2018-03-06T14:37:14.780Z,51.28
2018-03-06T14:39:42.249Z,50.40
2018-03-06T14:42:09.726Z,50.29
2018-03-06T14:44:37.203Z,50.39
2018-03-06T14:47:04.695Z,48.02
2018-03-06T14:49:32.160Z,48.80
2018-03-06T14:51:59.648Z,49.25
2018-03-06T14:54:27.111Z,52.90
2018-03-06T14:56:54.598Z,52.46
2018-03-06T14:59:22.063Z,52.52
2018-03-06T15:01:49.556Z,53.48
2018-03-06T15:04:17.022Z,54.56
2018-03-06T15:06:44.506Z,54.81
2018-03-06T15:09:11.973Z,55.58
2018-03-06T15:11:39.469Z,54.87
2018-03-06T15:14:06.936Z,56.65
2018-03-06T15:16:34.431Z,54.72
2018-03-06T15:19:01.917Z,54.55
2018-03-06T15:21:30.725Z,55.46
2018-03-06T15:23:58.196Z,55.01
2018-03-06T15:26:25.687Z,56.70
2018-03-06T15:28:53.160Z,55.70
2018-03-06T15:31:20.659Z,55.46
2018-03-06T15:33:48.119Z,57.33
2018-03-06T15:36:15.603Z,58.11
2018-03-06T15:38:43.068Z,59.43
2018-03-06T15:41:10.576Z,59.37
2018-03-06T15:43:38.043Z,59.98
2018-03-06T15:46:05.600Z,60.76
2018-03-06T15:48:33.107Z,61.42
2018-03-06T15:51:00.583Z,62.08
2018-03-06T15:53:28.076Z,63.09
2018-03-06T15:55:55.544Z,63.21
2018-03-06T15:58:23.035Z,63.94
2018-03-06T16:00:50.512Z,64.73
2018-03-06T16:03:18.016Z,64.64
2018-03-06T16:05:50.515Z,65.18
2018-03-06T16:08:18.005Z,65.47
2018-03-06T16:10:45.470Z,65.67
2018-03-06T16:13:12.951Z,65.26
2018-03-06T16:15:40.415Z,65.30
2018-03-06T16:18:07.901Z,65.91
2018-03-06T16:20:35.368Z,66.56
2018-03-06T16:23:02.865Z,66.98
2018-03-06T16:25:30.358Z,67.31
2018-03-06T16:27:57.847Z,67.38
2018-03-06T16:30:25.332Z,67.67
2018-03-06T16:32:52.831Z,67.90
2018-03-06T16:35:20.304Z,67.87
2018-03-06T16:37:47.792Z,67.99
2018-03-06T16:40:15.255Z,68.36
2018-03-06T16:42:42.731Z,68.48
2018-03-06T16:45:10.202Z,68.93
2018-03-06T16:47:37.684Z,69.31
2018-03-06T16:50:05.170Z,69.75
2018-03-06T16:52:32.662Z,69.77
2018-03-06T16:55:00.174Z,70.21
2018-03-06T16:57:27.627Z,70.44
2018-03-06T16:59:55.091Z,70.84
2018-03-06T17:02:22.578Z,71.02
2018-03-06T17:04:51.709Z,71.27
2018-03-06T17:07:20.480Z,71.31
2018-03-06T17:09:48.133Z,71.49
2018-03-06T17:12:16.386Z,71.52
2018-03-06T17:14:51.793Z,71.85
2018-03-06T17:17:21.832Z,72.30
2018-03-06T17:19:59.483Z,72.23
2018-03-06T17:22:27.215Z,72.62
2018-03-06T17:24:56.930Z,72.48
2018-03-06T17:27:38.723Z,72.47
2018-03-06T17:30:06.450Z,72.47
2018-03-06T17:32:34.183Z,72.72
2018-03-06T17:35:02.682Z,73.09
2018-03-06T17:37:32.152Z,73.22
2018-03-06T17:40:01.967Z,73.16
2018-03-06T17:42:30.436Z,73.04
2018-03-06T17:44:58.270Z,73.49
2018-03-06T17:47:26.724Z,73.42
2018-03-06T17:49:55.527Z,73.22
2018-03-06T17:52:23.218Z,73.31
2018-03-06T17:54:51.921Z,73.44
2018-03-06T17:57:20.637Z,73.34
2018-03-06T17:59:48.325Z,73.22
2018-03-06T18:02:16.090Z,73.57
2018-03-06T18:04:45.045Z,73.44
2018-03-06T18:07:13.473Z,73.50
2018-03-06T18:09:41.095Z,73.86
2018-03-06T18:12:10.525Z,74.12
2018-03-06T18:14:38.055Z,74.55
2018-03-06T18:17:05.648Z,74.44
2018-03-06T18:19:33.651Z,74.49
2018-03-06T18:22:01.295Z,74.38
2018-03-06T18:24:29.613Z,74.42
2018-03-06T18:26:59.978Z,74.57
2018-03-06T18:29:28.574Z,75.25
2018-03-06T18:31:56.070Z,75.49
2018-03-06T18:34:23.983Z,75.59
2018-03-06T18:36:54.701Z,75.65
2018-03-06T18:39:24.349Z,75.92
2018-03-06T18:41:51.831Z,75.84
2018-03-06T18:44:20.420Z,76.00
2018-03-06T18:46:48.095Z,76.33
2018-03-06T18:49:15.697Z,76.05
2018-03-06T18:51:43.344Z,76.23
2018-03-06T18:54:10.848Z,76.53
2018-03-06T18:56:38.480Z,76.61
2018-03-06T18:59:06.709Z,76.58
2018-03-06T19:04:50.828Z,77.51
2018-03-06T19:07:18.283Z,77.64
2018-03-06T19:09:45.763Z,77.60
2018-03-06T19:12:13.470Z,78.28
2018-03-06T19:14:41.700Z,78.08
2018-03-06T19:17:20.614Z,78.21
2018-03-06T19:19:48.152Z,78.01
2018-03-06T19:22:15.744Z,78.34
2018-03-06T19:25:00.710Z,78.28
2018-03-06T19:27:28.250Z,78.20
2018-03-06T19:29:55.825Z,78.08
2018-03-06T19:32:25.365Z,77.91
2018-03-06T19:34:52.964Z,77.92
2018-03-06T19:37:20.804Z,78.00
2018-03-06T19:39:48.388Z,78.16
2018-03-06T19:42:17.070Z,78.42
2018-03-06T19:44:45.730Z,78.61
2018-03-06T19:47:14.316Z,78.60
2018-03-06T19:49:41.799Z,78.42
2018-03-06T19:52:10.127Z,78.16
2018-03-06T19:54:37.673Z,77.76
2018-03-06T19:57:05.218Z,77.61
2018-03-06T19:59:32.673Z,77.86
2018-03-06T20:02:00.513Z,78.04
2018-03-06T20:04:28.173Z,78.67
2018-03-06T20:06:57.221Z,78.47
2018-03-06T20:12:04.030Z,78.73
2018-03-06T20:14:37.196Z,78.80
2018-03-06T20:17:04.852Z,78.63
2018-03-06T20:19:40.778Z,78.44
2018-03-06T20:22:08.288Z,79.09
2018-03-06T20:24:41.434Z,80.30
2018-03-06T20:27:10.335Z,81.23
2018-03-06T20:29:39.013Z,81.78
2018-03-06T20:32:13.542Z,82.44
2018-03-06T20:34:42.086Z,82.91
2018-03-06T20:37:09.675Z,84.03
2018-03-06T20:39:42.822Z,84.36
2018-03-06T20:42:10.342Z,85.42
2018-03-06T20:44:38.064Z,85.06
2018-03-06T20:47:11.287Z,85.45
2018-03-06T20:49:38.767Z,86.27
2018-03-06T20:52:06.256Z,86.40
2018-03-06T20:54:39.320Z,86.83
2018-03-06T20:57:08.629Z,86.88
2018-03-06T20:59:37.388Z,87.20
2018-03-06T21:02:05.072Z,88.27
2018-03-06T21:04:33.296Z,88.39
2018-03-06T21:07:01.988Z,89.15
2018-03-06T21:09:30.726Z,89.03
2018-03-06T21:12:04.974Z,89.21
2018-03-06T21:14:32.560Z,88.93
2018-03-06T21:17:00.056Z,88.83
2018-03-06T21:19:28.782Z,88.84
2018-03-06T21:21:56.280Z,88.41
2018-03-06T21:24:24.815Z,88.56
2018-03-06T21:26:52.335Z,88.90
2018-03-06T21:29:25.581Z,88.70
2018-03-06T21:31:59.390Z,89.11
2018-03-06T21:34:31.393Z,88.91
2018-03-06T21:37:01.750Z,88.71
2018-03-06T21:39:31.234Z,89.01
2018-03-06T21:41:58.847Z,89.05
2018-03-06T21:44:27.949Z,89.22
2018-03-06T21:46:55.721Z,89.15
2018-03-06T21:49:23.912Z,89.43
2018-03-06T21:51:53.006Z,89.16
2018-03-06T21:54:25.482Z,88.67
2018-03-06T21:56:55.350Z,88.55
2018-03-06T21:59:28.893Z,87.93
2018-03-06T22:01:57.600Z,88.31
2018-03-06T22:04:26.362Z,89.11
2018-03-06T22:06:55.962Z,89.32
2018-03-06T22:09:30.278Z,89.67
2018-03-06T22:11:59.293Z,90.20
2018-03-06T22:14:27.778Z,90.25
2018-03-06T22:16:56.348Z,90.33
2018-03-06T22:19:25.217Z,90.43
2018-03-06T22:21:52.732Z,90.48
2018-03-06T22:24:21.263Z,90.17
2018-03-06T22:26:48.752Z,89.87
2018-03-06T22:29:16.239Z,89.48
2018-03-06T22:31:43.704Z,89.40
2018-03-06T22:34:11.189Z,89.35
2018-03-06T22:36:38.656Z,89.96
2018-03-06T22:39:06.139Z,90.22
2018-03-06T22:41:33.595Z,90.41
2018-03-06T22:44:01.084Z,90.27
2018-03-06T22:46:28.543Z,90.58
2018-03-06T22:48:56.015Z,90.71
2018-03-06T22:51:23.484Z,90.83
2018-03-06T22:53:50.975Z,91.14
2018-03-06T22:56:18.444Z,91.17
2018-03-06T22:58:45.932Z,91.20
2018-03-06T23:01:13.388Z,91.92
2018-03-06T23:03:40.868Z,92.85
2018-03-06T23:06:08.334Z,92.61
2018-03-06T23:08:35.815Z,92.57
2018-03-06T23:11:03.283Z,93.03
2018-03-06T23:13:30.762Z,93.14
2018-03-06T23:15:58.328Z,92.92
2018-03-06T23:18:26.118Z,92.87
2018-03-06T23:20:53.822Z,92.98
2018-03-06T23:23:21.827Z,93.08
2018-03-06T23:25:49.367Z,93.01
2018-03-06T23:28:18.462Z,92.97
2018-03-06T23:30:45.923Z,92.84
2018-03-06T23:33:13.453Z,92.75
2018-03-06T23:35:41.161Z,92.47
2018-03-06T23:38:09.398Z,92.21
2018-03-06T23:40:38.094Z,92.01
2018-03-06T23:43:05.607Z,91.72
2018-03-06T23:45:33.123Z,91.49
2018-03-06T23:48:00.585Z,91.37
2018-03-06T23:50:28.138Z,91.37
2018-03-06T23:52:56.522Z,91.41
2018-03-06T23:55:24.032Z,91.37
2018-03-06T23:57:52.232Z,91.33
